sensor_id;sensor_type;location;lat;lon;timestamp;temperature;humidity
21928;DHT22;11128;51.096;17.190;2022-11-24T00:00:19;-0.70;99.90
21928;DHT22;11128;51.096;17.190;2022-11-24T00:05:20;-1.10;99.90
21928;DHT22;11128;51.096;17.190;2022-11-24T00:10:22;-1.20;99.90
21928;DHT22;11128;51.096;17.190;2022-11-24T00:15:24;-1.20;99.90
21928;DHT22;11128;51.096;17.190;2022-11-24T00:20:25;-0.60;99.90
21928;DHT22;11128;51.096;17.190;2022-11-24T00:25:27;-1.30;99.90
21928;DHT22;11128;51.096;17.190;2022-11-24T00:30:29;-1.30;99.90
21928;DHT22;11128;51.096;17.190;2022-11-24T00:35:30;-1.10;99.90
21928;DHT22;11128;51.096;17.190;2022-11-24T00:40:32;-0.80;99.90
21928;DHT22;11128;51.096;17.190;2022-11-24T00:45:33;-1.00;99.90
21928;DHT22;11128;51.096;17.190;2022-11-24T00:50:35;-0.80;99.90
21928;DHT22;11128;51.096;17.190;2022-11-24T00:55:36;-1.30;99.90
21928;DHT22;11128;51.096;17.190;2022-11-24T01:00:37;0.20;99.90
21928;DHT22;11128;51.096;17.190;2022-11-24T01:05:40;-1.20;99.90
21928;DHT22;11128;51.096;17.190;2022-11-24T01:10:41;-0.50;99.90
21928;DHT22;11128;51.096;17.190;2022-11-24T01:15:43;-1.20;99.90
21928;DHT22;11128;51.096;17.190;2022-11-24T01:20:44;-0.30;99.90
21928;DHT22;11128;51.096;17.190;2022-11-24T01:25:46;-1.10;99.90
21928;DHT22;11128;51.096;17.190;2022-11-24T01:30:56;-1.00;99.90
21928;DHT22;11128;51.096;17.190;2022-11-24T01:35:58;-1.00;99.90
21928;DHT22;11128;51.096;17.190;2022-11-24T01:51:23;-1.00;99.90
21928;DHT22;11128;51.096;17.190;2022-11-24T01:56:25;-0.90;99.90
21928;DHT22;11128;51.096;17.190;2022-11-24T02:01:27;-0.90;99.90
21928;DHT22;11128;51.096;17.190;2022-11-24T02:06:30;-0.40;99.90
21928;DHT22;11128;51.096;17.190;2022-11-24T02:11:35;-0.80;99.90
21928;DHT22;11128;51.096;17.190;2022-11-24T02:16:39;-0.80;99.90
21928;DHT22;11128;51.096;17.190;2022-11-24T02:21:41;-0.70;99.90
21928;DHT22;11128;51.096;17.190;2022-11-24T02:26:44;-0.30;99.90
21928;DHT22;11128;51.096;17.190;2022-11-24T02:31:53;-0.70;99.90
21928;DHT22;11128;51.096;17.190;2022-11-24T02:36:56;-0.60;99.90
21928;DHT22;11128;51.096;17.190;2022-11-24T02:42:10;-0.30;99.90
21928;DHT22;11128;51.096;17.190;2022-11-24T02:47:12;-0.50;99.90
21928;DHT22;11128;51.096;17.190;2022-11-24T02:52:14;-0.20;99.90
21928;DHT22;11128;51.096;17.190;2022-11-24T02:57:16;-0.40;99.90
21928;DHT22;11128;51.096;17.190;2022-11-24T03:02:17;-0.30;99.90
21928;DHT22;11128;51.096;17.190;2022-11-24T03:07:18;-0.10;99.90
21928;DHT22;11128;51.096;17.190;2022-11-24T03:12:20;-0.30;99.90
21928;DHT22;11128;51.096;17.190;2022-11-24T03:17:21;-0.10;99.90
21928;DHT22;11128;51.096;17.190;2022-11-24T03:22:22;0.20;99.90
21928;DHT22;11128;51.096;17.190;2022-11-24T03:27:24;-0.30;99.90
21928;DHT22;11128;51.096;17.190;2022-11-24T03:32:25;-0.30;99.90
21928;DHT22;11128;51.096;17.190;2022-11-24T03:37:26;-0.30;99.90
21928;DHT22;11128;51.096;17.190;2022-11-24T03:42:28;-0.30;99.90
21928;DHT22;11128;51.096;17.190;2022-11-24T03:47:29;-0.20;99.90
21928;DHT22;11128;51.096;17.190;2022-11-24T03:52:31;-0.20;99.90
21928;DHT22;11128;51.096;17.190;2022-11-24T03:57:32;-0.10;99.90
21928;DHT22;11128;51.096;17.190;2022-11-24T04:02:33;1.00;99.90
21928;DHT22;11128;51.096;17.190;2022-11-24T04:07:35;0.70;99.90
21928;DHT22;11128;51.096;17.190;2022-11-24T04:12:36;-0.20;99.90
21928;DHT22;11128;51.096;17.190;2022-11-24T04:17:48;-0.10;99.90
21928;DHT22;11128;51.096;17.190;2022-11-24T04:22:50;-0.10;99.90
21928;DHT22;11128;51.096;17.190;2022-11-24T04:27:53;0.00;99.90
21928;DHT22;11128;51.096;17.190;2022-11-24T04:32:55;0.00;99.90
21928;DHT22;11128;51.096;17.190;2022-11-24T04:38:01;0.20;99.90
21928;DHT22;11128;51.096;17.190;2022-11-24T04:43:02;0.00;99.90
21928;DHT22;11128;51.096;17.190;2022-11-24T04:48:04;0.00;99.90
21928;DHT22;11128;51.096;17.190;2022-11-24T04:53:05;0.00;99.90
21928;DHT22;11128;51.096;17.190;2022-11-24T04:58:10;1.00;99.90
21928;DHT22;11128;51.096;17.190;2022-11-24T05:03:11;0.10;99.90
21928;DHT22;11128;51.096;17.190;2022-11-24T05:08:12;0.10;99.90
21928;DHT22;11128;51.096;17.190;2022-11-24T05:13:14;0.10;99.90
21928;DHT22;11128;51.096;17.190;2022-11-24T05:18:15;0.00;99.90
21928;DHT22;11128;51.096;17.190;2022-11-24T05:23:17;0.10;99.90
21928;DHT22;11128;51.096;17.190;2022-11-24T05:28:18;0.10;99.90
21928;DHT22;11128;51.096;17.190;2022-11-24T05:33:23;0.10;99.90
21928;DHT22;11128;51.096;17.190;2022-11-24T05:38:24;0.60;99.90
21928;DHT22;11128;51.096;17.190;2022-11-24T05:43:26;0.10;99.90
21928;DHT22;11128;51.096;17.190;2022-11-24T05:48:28;0.40;99.90
21928;DHT22;11128;51.096;17.190;2022-11-24T05:53:29;0.00;99.90
21928;DHT22;11128;51.096;17.190;2022-11-24T05:58:30;0.00;99.90
21928;DHT22;11128;51.096;17.190;2022-11-24T06:03:32;0.00;99.90
21928;DHT22;11128;51.096;17.190;2022-11-24T06:08:33;0.00;99.90
21928;DHT22;11128;51.096;17.190;2022-11-24T06:13:35;0.10;99.90
21928;DHT22;11128;51.096;17.190;2022-11-24T06:18:36;0.60;99.90
21928;DHT22;11128;51.096;17.190;2022-11-24T06:23:38;0.10;99.90
21928;DHT22;11128;51.096;17.190;2022-11-24T06:28:40;0.10;99.90
21928;DHT22;11128;51.096;17.190;2022-11-24T06:33:41;0.10;99.90
21928;DHT22;11128;51.096;17.190;2022-11-24T06:38:42;0.10;99.90
21928;DHT22;11128;51.096;17.190;2022-11-24T06:43:44;0.60;99.90
21928;DHT22;11128;51.096;17.190;2022-11-24T06:48:46;0.10;99.90
21928;DHT22;11128;51.096;17.190;2022-11-24T06:53:47;0.20;99.90
21928;DHT22;11128;51.096;17.190;2022-11-24T06:58:50;0.20;99.90
21928;DHT22;11128;51.096;17.190;2022-11-24T07:03:53;0.30;99.90
21928;DHT22;11128;51.096;17.190;2022-11-24T07:08:54;1.40;99.90
21928;DHT22;11128;51.096;17.190;2022-11-24T07:13:56;0.40;99.90
21928;DHT22;11128;51.096;17.190;2022-11-24T07:18:58;0.40;99.90
21928;DHT22;11128;51.096;17.190;2022-11-24T07:24:00;0.50;99.90
21928;DHT22;11128;51.096;17.190;2022-11-24T07:29:02;0.50;99.90
21928;DHT22;11128;51.096;17.190;2022-11-24T07:34:03;0.50;99.90
21928;DHT22;11128;51.096;17.190;2022-11-24T07:39:05;0.60;99.90
21928;DHT22;11128;51.096;17.190;2022-11-24T07:44:07;0.60;99.90
21928;DHT22;11128;51.096;17.190;2022-11-24T07:49:08;1.80;99.90
21928;DHT22;11128;51.096;17.190;2022-11-24T07:54:10;0.80;99.90
21928;DHT22;11128;51.096;17.190;2022-11-24T07:59:11;1.20;99.90
21928;DHT22;11128;51.096;17.190;2022-11-24T08:04:13;0.80;99.90
21928;DHT22;11128;51.096;17.190;2022-11-24T08:09:14;0.80;99.90
21928;DHT22;11128;51.096;17.190;2022-11-24T08:14:16;0.90;99.90
21928;DHT22;11128;51.096;17.190;2022-11-24T08:19:18;1.10;99.90
21928;DHT22;11128;51.096;17.190;2022-11-24T08:24:19;1.50;99.90
21928;DHT22;11128;51.096;17.190;2022-11-24T08:29:21;1.20;99.90
21928;DHT22;11128;51.096;17.190;2022-11-24T08:34:23;2.00;99.90
21928;DHT22;11128;51.096;17.190;2022-11-24T08:39:25;1.30;99.90
21928;DHT22;11128;51.096;17.190;2022-11-24T08:44:26;2.40;99.90
21928;DHT22;11128;51.096;17.190;2022-11-24T08:49:28;2.00;99.90
21928;DHT22;11128;51.096;17.190;2022-11-24T08:54:30;1.60;99.90
21928;DHT22;11128;51.096;17.190;2022-11-24T08:59:32;1.70;99.90
21928;DHT22;11128;51.096;17.190;2022-11-24T09:04:33;2.00;99.90
21928;DHT22;11128;51.096;17.190;2022-11-24T09:09:34;2.50;99.90
21928;DHT22;11128;51.096;17.190;2022-11-24T09:14:36;2.30;99.90
21928;DHT22;11128;51.096;17.190;2022-11-24T09:19:38;1.90;99.90
21928;DHT22;11128;51.096;17.190;2022-11-24T09:24:39;2.60;99.90
21928;DHT22;11128;51.096;17.190;2022-11-24T09:29:41;3.00;99.90
21928;DHT22;11128;51.096;17.190;2022-11-24T09:34:42;2.60;99.90
21928;DHT22;11128;51.096;17.190;2022-11-24T09:39:43;2.00;99.90
21928;DHT22;11128;51.096;17.190;2022-11-24T09:50:35;2.10;99.90
21928;DHT22;11128;51.096;17.190;2022-11-24T10:00:47;2.70;99.90
21928;DHT22;11128;51.096;17.190;2022-11-24T10:05:49;2.40;99.90
21928;DHT22;11128;51.096;17.190;2022-11-24T10:11:00;2.60;99.90
21928;DHT22;11128;51.096;17.190;2022-11-24T10:16:07;2.70;99.90
21928;DHT22;11128;51.096;17.190;2022-11-24T10:21:36;3.40;99.90
21928;DHT22;11128;51.096;17.190;2022-11-24T10:26:50;2.80;99.90
21928;DHT22;11128;51.096;17.190;2022-11-24T10:31:55;2.90;99.90
21928;DHT22;11128;51.096;17.190;2022-11-24T10:42:12;3.00;99.90
21928;DHT22;11128;51.096;17.190;2022-11-24T10:47:18;3.00;99.90
21928;DHT22;11128;51.096;17.190;2022-11-24T10:52:21;3.00;99.90
21928;DHT22;11128;51.096;17.190;2022-11-24T11:02:38;3.20;99.90
21928;DHT22;11128;51.096;17.190;2022-11-24T11:07:39;3.30;99.90
21928;DHT22;11128;51.096;17.190;2022-11-24T11:12:40;3.40;99.90
21928;DHT22;11128;51.096;17.190;2022-11-24T11:17:43;3.50;99.90
21928;DHT22;11128;51.096;17.190;2022-11-24T11:22:47;3.70;99.90
21928;DHT22;11128;51.096;17.190;2022-11-24T11:27:49;3.80;99.90
21928;DHT22;11128;51.096;17.190;2022-11-24T11:32:56;4.10;99.90
21928;DHT22;11128;51.096;17.190;2022-11-24T11:38:00;3.80;99.90
21928;DHT22;11128;51.096;17.190;2022-11-24T11:43:12;3.80;99.90
21928;DHT22;11128;51.096;17.190;2022-11-24T11:48:32;4.10;99.90
21928;DHT22;11128;51.096;17.190;2022-11-24T11:53:42;4.50;99.90
21928;DHT22;11128;51.096;17.190;2022-11-24T12:09:27;3.90;99.90
21928;DHT22;11128;51.096;17.190;2022-11-24T12:30:18;4.40;99.90
21928;DHT22;11128;51.096;17.190;2022-11-24T12:35:43;4.40;99.90
21928;DHT22;11128;51.096;17.190;2022-11-24T12:41:23;4.40;99.90
21928;DHT22;11128;51.096;17.190;2022-11-24T12:51:54;4.50;99.90
21928;DHT22;11128;51.096;17.190;2022-11-24T12:57:08;4.70;99.90
21928;DHT22;11128;51.096;17.190;2022-11-24T13:02:37;4.20;99.90
21928;DHT22;11128;51.096;17.190;2022-11-24T13:07:46;4.20;99.90
21928;DHT22;11128;51.096;17.190;2022-11-24T13:18:00;4.20;99.90
21928;DHT22;11128;51.096;17.190;2022-11-24T13:23:03;4.20;99.90
21928;DHT22;11128;51.096;17.190;2022-11-24T13:28:05;4.20;99.90
21928;DHT22;11128;51.096;17.190;2022-11-24T13:38:51;4.20;99.90
21928;DHT22;11128;51.096;17.190;2022-11-24T13:49:19;4.00;99.90
21928;DHT22;11128;51.096;17.190;2022-11-24T13:54:23;4.00;99.90
21928;DHT22;11128;51.096;17.190;2022-11-24T13:59:31;4.00;99.90
21928;DHT22;11128;51.096;17.190;2022-11-24T14:04:35;3.90;99.90
21928;DHT22;11128;51.096;17.190;2022-11-24T14:09:42;3.80;99.90
21928;DHT22;11128;51.096;17.190;2022-11-24T14:15:24;4.60;99.90
21928;DHT22;11128;51.096;17.190;2022-11-24T14:20:26;3.70;99.90
21928;DHT22;11128;51.096;17.190;2022-11-24T14:25:30;4.80;99.90
21928;DHT22;11128;51.096;17.190;2022-11-24T14:30:32;3.60;99.90
21928;DHT22;11128;51.096;17.190;2022-11-24T14:35:41;3.50;99.90
21928;DHT22;11128;51.096;17.190;2022-11-24T14:40:48;4.10;99.90
21928;DHT22;11128;51.096;17.190;2022-11-24T14:45:53;3.40;99.90
21928;DHT22;11128;51.096;17.190;2022-11-24T14:51:06;3.40;99.90
21928;DHT22;11128;51.096;17.190;2022-11-24T14:56:27;3.40;99.90
21928;DHT22;11128;51.096;17.190;2022-11-24T15:01:33;3.30;99.90
21928;DHT22;11128;51.096;17.190;2022-11-24T15:06:35;3.30;99.90
21928;DHT22;11128;51.096;17.190;2022-11-24T15:11:36;3.30;99.90
21928;DHT22;11128;51.096;17.190;2022-11-24T15:16:38;3.20;99.90
21928;DHT22;11128;51.096;17.190;2022-11-24T15:21:40;3.20;99.90
21928;DHT22;11128;51.096;17.190;2022-11-24T15:26:42;3.30;99.90
21928;DHT22;11128;51.096;17.190;2022-11-24T15:31:44;3.60;99.90
21928;DHT22;11128;51.096;17.190;2022-11-24T15:36:45;3.20;99.90
21928;DHT22;11128;51.096;17.190;2022-11-24T15:41:46;3.10;99.90
21928;DHT22;11128;51.096;17.190;2022-11-24T15:46:48;3.40;99.90
21928;DHT22;11128;51.096;17.190;2022-11-24T15:51:49;3.10;99.90
21928;DHT22;11128;51.096;17.190;2022-11-24T15:56:51;3.00;99.90
21928;DHT22;11128;51.096;17.190;2022-11-24T16:01:52;3.00;99.90
21928;DHT22;11128;51.096;17.190;2022-11-24T16:06:54;2.90;99.90
21928;DHT22;11128;51.096;17.190;2022-11-24T16:11:55;3.70;99.90
21928;DHT22;11128;51.096;17.190;2022-11-24T16:16:56;2.80;99.90
21928;DHT22;11128;51.096;17.190;2022-11-24T16:21:58;3.60;99.90
21928;DHT22;11128;51.096;17.190;2022-11-24T16:26:59;3.00;99.90
21928;DHT22;11128;51.096;17.190;2022-11-24T16:32:00;2.90;99.90
21928;DHT22;11128;51.096;17.190;2022-11-24T16:37:02;3.00;99.90
21928;DHT22;11128;51.096;17.190;2022-11-24T16:42:04;2.80;99.90
21928;DHT22;11128;51.096;17.190;2022-11-24T16:47:05;2.80;99.90
21928;DHT22;11128;51.096;17.190;2022-11-24T16:52:07;2.80;99.90
21928;DHT22;11128;51.096;17.190;2022-11-24T16:57:08;2.80;99.90
21928;DHT22;11128;51.096;17.190;2022-11-24T17:02:13;2.70;99.90
21928;DHT22;11128;51.096;17.190;2022-11-24T17:07:14;2.70;99.90
21928;DHT22;11128;51.096;17.190;2022-11-24T17:12:16;2.70;99.90
21928;DHT22;11128;51.096;17.190;2022-11-24T17:17:18;2.70;99.90
21928;DHT22;11128;51.096;17.190;2022-11-24T17:22:19;2.70;99.90
21928;DHT22;11128;51.096;17.190;2022-11-24T17:27:21;2.50;99.90
21928;DHT22;11128;51.096;17.190;2022-11-24T17:32:22;2.50;99.90
21928;DHT22;11128;51.096;17.190;2022-11-24T17:37:24;2.60;99.90
21928;DHT22;11128;51.096;17.190;2022-11-24T17:42:25;2.40;99.90
21928;DHT22;11128;51.096;17.190;2022-11-24T17:47:27;2.30;99.90
21928;DHT22;11128;51.096;17.190;2022-11-24T17:52:30;2.20;99.90
21928;DHT22;11128;51.096;17.190;2022-11-24T17:57:32;2.90;99.90
21928;DHT22;11128;51.096;17.190;2022-11-24T18:02:33;2.30;99.90
21928;DHT22;11128;51.096;17.190;2022-11-24T18:07:37;2.20;99.90
21928;DHT22;11128;51.096;17.190;2022-11-24T18:12:39;2.20;99.90
21928;DHT22;11128;51.096;17.190;2022-11-24T18:17:41;2.20;99.90
21928;DHT22;11128;51.096;17.190;2022-11-24T18:22:42;2.20;99.90
21928;DHT22;11128;51.096;17.190;2022-11-24T18:27:44;2.20;99.90
21928;DHT22;11128;51.096;17.190;2022-11-24T18:32:45;2.20;99.90
21928;DHT22;11128;51.096;17.190;2022-11-24T18:37:47;2.30;99.90
21928;DHT22;11128;51.096;17.190;2022-11-24T18:42:48;2.80;99.90
21928;DHT22;11128;51.096;17.190;2022-11-24T18:47:50;2.20;99.90
21928;DHT22;11128;51.096;17.190;2022-11-24T18:52:52;3.10;99.90
21928;DHT22;11128;51.096;17.190;2022-11-24T18:57:53;2.20;99.90
21928;DHT22;11128;51.096;17.190;2022-11-24T19:02:55;2.40;99.90
21928;DHT22;11128;51.096;17.190;2022-11-24T19:07:56;2.20;99.90
21928;DHT22;11128;51.096;17.190;2022-11-24T19:12:58;2.40;99.90
21928;DHT22;11128;51.096;17.190;2022-11-24T19:18:00;2.10;99.90
21928;DHT22;11128;51.096;17.190;2022-11-24T19:23:02;2.10;99.90
21928;DHT22;11128;51.096;17.190;2022-11-24T19:28:03;2.10;99.90
21928;DHT22;11128;51.096;17.190;2022-11-24T19:33:07;2.00;99.90
21928;DHT22;11128;51.096;17.190;2022-11-24T19:38:08;2.00;99.90
21928;DHT22;11128;51.096;17.190;2022-11-24T19:43:10;2.00;99.90
21928;DHT22;11128;51.096;17.190;2022-11-24T19:48:12;2.00;99.90
21928;DHT22;11128;51.096;17.190;2022-11-24T19:53:13;3.00;99.90
21928;DHT22;11128;51.096;17.190;2022-11-24T19:58:14;2.00;99.90
21928;DHT22;11128;51.096;17.190;2022-11-24T20:03:16;2.10;99.90
21928;DHT22;11128;51.096;17.190;2022-11-24T20:08:18;2.10;99.90
21928;DHT22;11128;51.096;17.190;2022-11-24T20:13:19;2.10;99.90
21928;DHT22;11128;51.096;17.190;2022-11-24T20:18:21;2.10;99.90
21928;DHT22;11128;51.096;17.190;2022-11-24T20:23:23;2.10;99.90
21928;DHT22;11128;51.096;17.190;2022-11-24T20:28:24;2.10;99.90
21928;DHT22;11128;51.096;17.190;2022-11-24T20:33:25;2.90;99.90
21928;DHT22;11128;51.096;17.190;2022-11-24T20:38:28;2.10;99.90
21928;DHT22;11128;51.096;17.190;2022-11-24T20:43:29;2.00;99.90
21928;DHT22;11128;51.096;17.190;2022-11-24T20:48:36;2.00;99.90
21928;DHT22;11128;51.096;17.190;2022-11-24T20:53:38;2.10;99.90
21928;DHT22;11128;51.096;17.190;2022-11-24T20:58:40;2.10;99.90
21928;DHT22;11128;51.096;17.190;2022-11-24T21:03:43;2.40;99.90
21928;DHT22;11128;51.096;17.190;2022-11-24T21:08:45;2.10;99.90
21928;DHT22;11128;51.096;17.190;2022-11-24T21:13:47;2.10;99.90
21928;DHT22;11128;51.096;17.190;2022-11-24T21:18:51;2.50;99.90
21928;DHT22;11128;51.096;17.190;2022-11-24T21:23:52;2.10;99.90
21928;DHT22;11128;51.096;17.190;2022-11-24T21:28:55;2.40;99.90
21928;DHT22;11128;51.096;17.190;2022-11-24T21:33:57;2.90;99.90
21928;DHT22;11128;51.096;17.190;2022-11-24T21:38:58;2.20;99.90
21928;DHT22;11128;51.096;17.190;2022-11-24T21:44:00;2.20;99.90
21928;DHT22;11128;51.096;17.190;2022-11-24T21:49:02;2.20;99.90
21928;DHT22;11128;51.096;17.190;2022-11-24T21:54:04;2.20;99.90
21928;DHT22;11128;51.096;17.190;2022-11-24T21:59:06;2.30;99.90
21928;DHT22;11128;51.096;17.190;2022-11-24T22:04:08;2.40;99.90
21928;DHT22;11128;51.096;17.190;2022-11-24T22:09:10;2.40;99.90
21928;DHT22;11128;51.096;17.190;2022-11-24T22:14:11;2.50;99.90
21928;DHT22;11128;51.096;17.190;2022-11-24T22:19:13;2.60;99.90
21928;DHT22;11128;51.096;17.190;2022-11-24T22:24:14;2.60;99.90
21928;DHT22;11128;51.096;17.190;2022-11-24T22:29:16;2.60;99.90
21928;DHT22;11128;51.096;17.190;2022-11-24T22:34:17;2.60;99.90
21928;DHT22;11128;51.096;17.190;2022-11-24T22:39:19;2.70;99.90
21928;DHT22;11128;51.096;17.190;2022-11-24T22:44:20;2.70;99.90
21928;DHT22;11128;51.096;17.190;2022-11-24T22:49:21;3.30;99.90
21928;DHT22;11128;51.096;17.190;2022-11-24T22:54:23;3.10;99.90
21928;DHT22;11128;51.096;17.190;2022-11-24T22:59:25;2.80;99.90
21928;DHT22;11128;51.096;17.190;2022-11-24T23:04:26;3.20;99.90
21928;DHT22;11128;51.096;17.190;2022-11-24T23:09:28;2.80;99.90
21928;DHT22;11128;51.096;17.190;2022-11-24T23:14:29;2.90;99.90
21928;DHT22;11128;51.096;17.190;2022-11-24T23:19:31;3.00;99.90
21928;DHT22;11128;51.096;17.190;2022-11-24T23:24:33;3.00;99.90
21928;DHT22;11128;51.096;17.190;2022-11-24T23:29:38;3.00;99.90
21928;DHT22;11128;51.096;17.190;2022-11-24T23:34:40;3.00;99.90
21928;DHT22;11128;51.096;17.190;2022-11-24T23:39:41;3.30;99.90
21928;DHT22;11128;51.096;17.190;2022-11-24T23:44:42;3.20;99.90
21928;DHT22;11128;51.096;17.190;2022-11-24T23:49:44;3.20;99.90
21928;DHT22;11128;51.096;17.190;2022-11-24T23:54:45;3.20;99.90
21928;DHT22;11128;51.096;17.190;2022-11-24T23:59:47;3.20;99.90
